Погода Буркина 2 недели

Гомельская область, Белоруссия

19 июля-01 августа
  • 19июля
    Сегодня
    +13°
    +27°
    Ясно и безоблачно
    ВремяПогодаТемператураВлажностьДавлениеВетер, м/сВероятность осадков
    00:00Ясно и безоблачно+19°C94 %752 мм0.5 м/с8 %
    03:00Ясно и безоблачно+18°C96 %752 мм0.9 м/с2 %
    06:00Ясно и безоблачно+17°C95 %752 мм0.8 м/с2 %
    09:00Небольшая облачность+21°C77 %753 мм1.9 м/с2 %
    12:00Практически безоблачно+25°C56 %752 мм2.0 м/с5 %
    15:00Ясно и безоблачно+26°C45 %752 мм2.7 м/с2 %
    18:00Ясно и безоблачно+24°C46 %750 мм3.1 м/с2 %
    21:00Ясно и безоблачно+20°C64 %750 мм1.0 м/с2 %
  • 20июля
    Суббота
    +14°
    +27°
    Ясно и безоблачно
    ВремяПогодаТемператураВлажностьДавлениеВетер, м/сВероятность осадков
    00:00Ясно и безоблачно+17°C75 %750 мм0.2 м/с2 %
    03:00Ясно и безоблачно+15°C87 %750 мм0.4 м/с2 %
    06:00Ясно и безоблачно+14°C85 %749 мм0.3 м/с2 %
    09:00Ясно и безоблачно+20°C65 %749 мм1.4 м/с2 %
    12:00Практически безоблачно+24°C45 %749 мм1.6 м/с3 %
    15:00Ясно и безоблачно+26°C40 %748 мм2.4 м/с8 %
    18:00Облачно с прояснениями+24°C37 %747 мм2.5 м/с7 %
    21:00Ясно и безоблачно+20°C62 %748 мм0.5 м/с1 %
  • 21июля
    Воскресенье
    +14°
    +26°
    Ясно и безоблачно
    ВремяПогодаТемператураВлажностьДавлениеВетер, м/сВероятность осадков
    00:00Небольшая облачность+16°C77 %748 мм0.0 м/с2 %
    03:00Ясно и безоблачно+15°C86 %748 мм0.3 м/с2 %
    06:00Ясно и безоблачно+14°C86 %747 мм0.0 м/с2 %
    09:00Ясно и безоблачно+21°C62 %748 мм0.6 м/с2 %
    12:00Практически безоблачно+24°C47 %748 мм0.7 м/с7 %
    15:00Ясно и безоблачно+26°C45 %747 мм1.1 м/с23 %
    18:00Практически безоблачно+24°C43 %747 мм1.5 м/с8 %
    21:00Ясно и безоблачно+20°C58 %747 мм0.3 м/с7 %
  • 22июля
    Понедельник
    +14°
    +27°
    Небольшая облачность, возможен дождь с грозой
    ВремяПогодаТемператураВлажностьДавлениеВетер, м/сВероятность осадков
    00:00Ясно и безоблачно+17°C70 %747 мм0.0 м/с2 %
    03:00Ясно и безоблачно+16°C84 %747 мм0.3 м/с2 %
    06:00Ясно и безоблачно+15°C85 %747 мм0.0 м/с4 %
    09:00Ясно и безоблачно+22°C62 %747 мм0.5 м/с5 %
    12:00Ясно и безоблачно+26°C48 %748 мм0.8 м/с25 %
    15:00Небольшая облачность, возможен дождь с грозой+27°C45 %747 мм1.5 м/с37 %
    18:00Небольшая облачность, ливень+23°C58 %747 мм1.8 м/с54 %
    21:00Ясно и безоблачно+20°C77 %748 мм0.3 м/с14 %
  • 23июля
    Вторник
    +15°
    +27°
    Практически безоблачно
    ВремяПогодаТемператураВлажностьДавлениеВетер, м/сВероятность осадков
    00:00Ясно и безоблачно+17°C84 %748 мм0.1 м/с2 %
    03:00Ясно и безоблачно+16°C90 %748 мм0.4 м/с2 %
    06:00Ясно и безоблачно+15°C93 %748 мм0.2 м/с2 %
    09:00Ясно и безоблачно+22°C67 %748 мм1.3 м/с4 %
    12:00Ясно и безоблачно+25°C53 %748 мм1.4 м/с25 %
    15:00Практически безоблачно+27°C49 %748 мм2.1 м/с35 %
    18:00Облачно с прояснениями+24°C51 %747 мм2.4 м/с39 %
    21:00Облачно с прояснениями+21°C64 %747 мм0.8 м/с17 %
Мы используем cookies
Соглашаюсь